Time;durP1;ratioP1;P1;durP2;ratioP2;P2;SDS_P1;SDS_P2;PMS_P1;PMS_P2;Temp;Humidity;BMP_temperature;BMP_pressure;BME280_temperature;BME280_humidity;BME280_pressure;Samples;Min_cycle;Max_cycle;Signal;HPM_P1;HPM_P2
2021/08/29 00:07:31;;;;;;;20.33;11.80;;;12.90;99.90;;;;;;20924681;28;20033;-79
2021/08/29 00:17:32;;;;;;;14.97;10.43;;;13.00;99.90;;;;;;20937135;28;20041;-79
2021/08/29 00:27:32;;;;;;;18.20;11.83;;;12.90;99.90;;;;;;20922986;28;20120;-80
2021/08/29 00:37:33;;;;;;;18.97;11.57;;;12.80;99.90;;;;;;20920879;28;20036;-80
2021/08/29 00:47:35;;;;;;;26.15;11.38;;;12.90;99.90;;;;;;20872076;28;20058;-79
2021/08/29 00:57:40;;;;;;;15.53;9.90;;;12.80;99.90;;;;;;20916445;28;20032;-80
2021/08/29 01:07:57;;;;;;;15.98;9.95;;;12.90;99.90;;;;;;20986640;28;20032;-79
2021/08/29 01:18:00;;;;;;;16.80;10.55;;;12.90;99.90;;;;;;21019168;28;20394;-78
2021/08/29 01:28:16;;;;;;;13.98;8.90;;;12.90;99.90;;;;;;21001160;28;20051;-80
2021/08/29 01:38:18;;;;;;;24.23;10.82;;;12.80;99.90;;;;;;21005261;28;20028;-79
2021/08/29 01:48:19;;;;;;;;;;;12.50;99.90;;;;;;21003029;28;20483;-79
2021/08/29 01:58:27;;;;;;;19.80;11.20;;;12.40;99.90;;;;;;20985247;28;19958;-79
2021/08/29 02:08:30;;;;;;;18.05;11.43;;;12.30;99.90;;;;;;21001258;28;20045;-79
2021/08/29 02:18:34;;;;;;;19.90;11.00;;;12.50;99.90;;;;;;21018786;28;20028;-80
2021/08/29 02:28:36;;;;;;;24.20;11.57;;;12.50;99.90;;;;;;21006451;28;20165;-79
2021/08/29 02:38:37;;;;;;;;;;;12.40;99.90;;;;;;21013629;28;20028;-80
2021/08/29 02:48:43;;;;;;;20.70;11.73;;;12.50;99.90;;;;;;21015136;28;19973;-80
2021/08/29 02:58:48;;;;;;;15.73;8.27;;;12.60;99.90;;;;;;20996210;28;20036;-80
2021/08/29 03:09:09;;;;;;;12.38;7.45;;;12.60;99.90;;;;;;20996065;28;20498;-80
2021/08/29 03:19:15;;;;;;;11.00;5.88;;;12.60;99.90;;;;;;20979305;28;20028;-80
2021/08/29 03:29:29;;;;;;;14.23;6.50;;;12.60;99.90;;;;;;20995649;28;20039;-80
2021/08/29 03:39:32;;;;;;;9.40;6.60;;;12.70;99.90;;;;;;21012589;28;20407;-79
2021/08/29 03:49:34;;;;;;;50.47;8.32;;;12.70;99.90;;;;;;20994718;28;20078;-80
2021/08/29 03:59:36;;;;;;;;;;;12.80;99.90;;;;;;20995451;28;20092;-78
2021/08/29 04:09:39;;;;;;;8.88;5.82;;;12.80;99.90;;;;;;20993481;28;19912;-80
2021/08/29 04:19:42;;;;;;;17.73;6.97;;;12.80;99.90;;;;;;20994290;28;20025;-80
2021/08/29 04:29:44;;;;;;;15.15;8.23;;;12.80;99.90;;;;;;20995335;28;20094;-80
2021/08/29 04:39:45;;;;;;;13.97;7.73;;;12.50;99.90;;;;;;21009797;28;20032;-80
2021/08/29 04:49:46;;;;;;;16.20;8.97;;;12.50;99.90;;;;;;21000422;28;20178;-79
2021/08/29 04:59:54;;;;;;;12.93;7.75;;;12.70;99.90;;;;;;21001295;28;20067;-78
2021/08/29 05:09:55;;;;;;;14.83;8.77;;;12.80;99.90;;;;;;21016310;28;20021;-78
2021/08/29 05:19:57;;;;;;;19.10;11.02;;;12.80;99.90;;;;;;20996935;28;20032;-78
2021/08/29 05:30:16;;;;;;;20.30;11.02;;;12.90;99.90;;;;;;20998589;28;20445;-78
2021/08/29 05:40:17;;;;;;;17.73;9.97;;;13.00;99.90;;;;;;21012889;28;20032;-77
2021/08/29 05:50:38;;;;;;;29.20;14.15;;;13.00;99.90;;;;;;21012811;28;20054;-77
2021/08/29 06:00:39;;;;;;;27.67;13.80;;;12.90;99.90;;;;;;20994043;28;20490;-78
2021/08/29 06:10:40;;;;;;;22.70;12.20;;;13.10;99.90;;;;;;20993400;28;20106;-78
2021/08/29 06:20:41;;;;;;;22.53;11.87;;;13.10;99.90;;;;;;21008588;28;20071;-78
2021/08/29 06:30:42;;;;;;;20.25;11.05;;;13.20;99.90;;;;;;20990632;28;20040;-78
2021/08/29 06:41:03;;;;;;;19.92;11.30;;;13.20;99.90;;;;;;21007278;28;20043;-78
2021/08/29 06:51:04;;;;;;;22.97;12.40;;;13.30;99.90;;;;;;20993679;28;20032;-78
2021/08/29 07:01:23;;;;;;;23.08;12.00;;;13.40;99.90;;;;;;21013194;28;20407;-79
2021/08/29 07:11:24;;;;;;;19.97;12.10;;;13.40;99.90;;;;;;21011595;28;20499;-78
2021/08/29 07:21:54;;;;;;;20.08;10.30;;;13.40;99.90;;;;;;21010783;28;20047;-79
2021/08/29 07:32:21;;;;;;;20.52;10.90;;;13.70;99.90;;;;;;21011172;28;20094;-78
2021/08/29 07:42:22;;;;;;;22.90;11.93;;;13.90;99.90;;;;;;20993634;28;20119;-78
2021/08/29 07:52:24;;;;;;;18.00;9.80;;;14.00;99.90;;;;;;20977677;28;20090;-80
2021/08/29 08:02:48;;;;;;;19.95;10.43;;;14.10;99.90;;;;;;20980768;28;20068;-80
2021/08/29 08:13:07;;;;;;;15.68;8.70;;;14.20;99.90;;;;;;21009649;28;20479;-78
2021/08/29 08:23:08;;;;;;;13.30;8.27;;;14.50;99.90;;;;;;21000064;28;20032;-79
2021/08/29 08:33:41;;;;;;;;;;;14.90;99.90;;;;;;20990766;28;20045;-79
2021/08/29 08:43:57;;;;;;;12.10;6.32;;;15.20;99.90;;;;;;21004752;28;20000;-78
2021/08/29 08:54:17;;;;;;;4.22;2.38;;;14.80;99.90;;;;;;21021049;28;20040;-79
2021/08/29 09:04:37;;;;;;;3.60;1.73;;;15.60;99.90;;;;;;21019138;28;20106;-79
2021/08/29 09:14:46;;;;;;;3.05;2.00;;;15.50;99.90;;;;;;20951612;28;20060;-77
2021/08/29 09:24:52;;;;;;;3.20;1.83;;;16.40;99.90;;;;;;20916095;28;20067;-77
2021/08/29 09:35:12;;;;;;;2.08;1.17;;;16.50;99.90;;;;;;20892544;28;20043;-78
2021/08/29 09:45:32;;;;;;;1.55;1.23;;;16.40;99.90;;;;;;20910910;28;20047;-79
2021/08/29 09:55:52;;;;;;;7.97;0.77;;;16.10;99.90;;;;;;20988374;28;20056;-77
2021/08/29 10:06:19;;;;;;;1.25;0.95;;;16.20;99.90;;;;;;20864219;28;20170;-77
2021/08/29 10:16:22;;;;;;;3.33;1.30;;;16.30;99.90;;;;;;20906699;28;20120;-79
2021/08/29 10:27:13;;;;;;;4.72;1.60;;;16.50;99.90;;;;;;20906847;28;20116;-78
2021/08/29 10:37:45;;;;;;;1.47;1.37;;;16.60;99.90;;;;;;20900595;28;20048;-77
2021/08/29 10:48:05;;;;;;;3.22;1.40;;;16.30;99.90;;;;;;20903500;28;20120;-79
2021/08/29 10:58:24;;;;;;;3.05;2.17;;;16.40;99.90;;;;;;20958329;28;20040;-78
2021/08/29 11:08:30;;;;;;;2.83;2.30;;;16.50;99.90;;;;;;20939784;28;20074;-77
2021/08/29 11:19:02;;;;;;;4.85;2.60;;;16.40;99.90;;;;;;20914486;28;20047;-78
2021/08/29 11:29:42;;;;;;;3.45;2.10;;;16.40;99.90;;;;;;20889517;28;20045;-78
2021/08/29 11:39:44;;;;;;;1.77;1.00;;;16.50;99.90;;;;;;20880799;28;20685;-77
2021/08/29 11:49:57;;;;;;;1.35;1.20;;;17.20;99.90;;;;;;20899075;28;20037;-77
2021/08/29 12:00:07;;;;;;;0.75;0.65;;;18.30;99.90;;;;;;20965353;28;20029;-78
2021/08/29 12:10:26;;;;;;;0.63;0.63;;;19.50;99.90;;;;;;20930113;28;20377;-78
2021/08/29 12:20:48;;;;;;;12.93;7.47;;;18.40;99.90;;;;;;20912652;28;20040;-78
2021/08/29 12:31:08;;;;;;;2.13;1.10;;;19.60;99.90;;;;;;20909133;28;20045;-77
2021/08/29 12:41:15;;;;;;;2.27;0.87;;;19.70;99.90;;;;;;20908049;28;20411;-77
2021/08/29 12:51:17;;;;;;;1.27;1.00;;;19.20;99.90;;;;;;20903619;28;20037;-77
2021/08/29 13:01:19;;;;;;;0.70;0.68;;;19.00;99.90;;;;;;20904399;28;20056;-76
2021/08/29 13:11:22;;;;;;;1.90;0.90;;;18.90;99.90;;;;;;20961322;28;20025;-78
2021/08/29 13:21:29;;;;;;;0.90;0.70;;;18.70;99.90;;;;;;20990524;28;20064;-77
2021/08/29 13:31:35;;;;;;;0.80;0.65;;;18.10;99.90;;;;;;20996165;28;20108;-74
2021/08/29 13:41:37;;;;;;;1.23;0.60;;;18.00;99.90;;;;;;20997127;28;20029;-76
2021/08/29 13:51:37;;;;;;;1.50;0.77;;;19.10;99.90;;;;;;20988464;28;20029;-77
2021/08/29 14:01:38;;;;;;;1.97;0.90;;;19.90;99.90;;;;;;20986100;28;20020;-77
2021/08/29 14:11:39;;;;;;;2.03;1.40;;;19.00;99.90;;;;;;20982487;28;20098;-77
2021/08/29 14:21:43;;;;;;;1.70;1.20;;;19.30;99.90;;;;;;20975773;28;20033;-77
2021/08/29 14:31:44;;;;;;;1.30;1.08;;;18.90;99.90;;;;;;20975971;28;20036;-76
2021/08/29 14:41:44;;;;;;;1.37;0.90;;;18.30;99.90;;;;;;20974560;28;20158;-75
2021/08/29 14:51:45;;;;;;;1.77;0.90;;;18.10;99.90;;;;;;20969908;28;20040;-77
2021/08/29 15:01:47;;;;;;;2.22;1.00;;;17.90;99.90;;;;;;20955298;28;20032;-77
2021/08/29 15:11:48;;;;;;;0.95;0.80;;;17.60;99.90;;;;;;20985382;28;20129;-77
2021/08/29 15:21:50;;;;;;;0.60;0.60;;;17.80;99.90;;;;;;20974283;28;20609;-76
2021/08/29 15:31:54;;;;;;;0.75;0.70;;;17.70;99.90;;;;;;20976219;28;20044;-77
2021/08/29 15:41:55;;;;;;;1.20;0.80;;;17.70;99.90;;;;;;20976942;28;20094;-77
2021/08/29 15:51:56;;;;;;;0.87;0.70;;;17.30;99.90;;;;;;20975855;28;20028;-77
2021/08/29 16:01:59;;;;;;;0.77;0.70;;;17.20;99.90;;;;;;20977421;28;20100;-77
2021/08/29 16:12:01;;;;;;;1.75;1.20;;;17.30;99.90;;;;;;20921873;28;20029;-78
2021/08/29 16:22:04;;;;;;;2.50;1.50;;;17.20;99.90;;;;;;20890424;28;20040;-78
2021/08/29 16:32:05;;;;;;;2.27;1.10;;;17.10;99.90;;;;;;20893506;28;20041;-77
2021/08/29 16:42:06;;;;;;;;;;;17.10;99.90;;;;;;20897986;28;20504;-76
2021/08/29 16:52:08;;;;;;;3.63;1.47;;;17.00;99.90;;;;;;20903848;28;19924;-77
2021/08/29 17:02:09;;;;;;;4.47;1.80;;;16.80;99.90;;;;;;20901630;28;20275;-77
2021/08/29 17:12:09;;;;;;;4.23;2.13;;;16.70;99.90;;;;;;20902260;28;20041;-76
2021/08/29 17:22:12;;;;;;;3.67;2.23;;;16.50;99.90;;;;;;20908503;28;20098;-76
2021/08/29 17:32:12;;;;;;;3.60;1.98;;;16.20;99.90;;;;;;20972818;28;20040;-78
2021/08/29 17:42:14;;;;;;;6.03;2.50;;;16.00;99.90;;;;;;20998388;28;20093;-76
2021/08/29 17:52:15;;;;;;;3.08;2.35;;;15.70;99.90;;;;;;21002545;28;20039;-77
2021/08/29 18:02:23;;;;;;;3.93;2.67;;;15.50;99.90;;;;;;20997537;28;20060;-77
2021/08/29 18:12:24;;;;;;;3.72;2.67;;;15.30;99.90;;;;;;20946740;28;20147;-77
2021/08/29 18:22:25;;;;;;;4.20;2.83;;;15.20;99.90;;;;;;20915616;28;20040;-78
2021/08/29 18:32:26;;;;;;;4.53;2.90;;;15.10;99.90;;;;;;20917694;28;20025;-78
2021/08/29 18:42:27;;;;;;;7.67;3.30;;;15.00;99.90;;;;;;20955078;28;20107;-78
2021/08/29 18:52:28;;;;;;;5.55;3.50;;;15.00;99.90;;;;;;20997278;28;20032;-76
2021/08/29 19:02:29;;;;;;;9.10;3.50;;;14.90;99.90;;;;;;20996228;28;20116;-77
2021/08/29 19:12:31;;;;;;;8.57;4.20;;;14.70;99.90;;;;;;20934024;28;20039;-77
2021/08/29 19:22:33;;;;;;;4.97;3.58;;;14.70;99.90;;;;;;20909125;28;20025;-76
2021/08/29 19:32:35;;;;;;;9.83;3.97;;;14.60;99.90;;;;;;20909656;28;20650;-78
2021/08/29 19:42:38;;;;;;;6.88;4.35;;;14.60;99.90;;;;;;20952513;28;20024;-78
2021/08/29 19:52:39;;;;;;;7.88;4.70;;;14.60;99.90;;;;;;20991734;28;20040;-78
2021/08/29 20:02:40;;;;;;;8.07;4.67;;;14.50;99.90;;;;;;21009416;28;20040;-79
2021/08/29 20:12:40;;;;;;;7.60;4.93;;;14.50;99.90;;;;;;21004634;28;20112;-78
2021/08/29 20:22:41;;;;;;;11.53;5.33;;;14.40;99.90;;;;;;21021037;28;20128;-79
2021/08/29 20:32:42;;;;;;;7.33;4.93;;;14.40;99.90;;;;;;21015382;28;20407;-77
2021/08/29 20:42:44;;;;;;;6.83;4.90;;;14.40;99.90;;;;;;20987365;28;20030;-76
2021/08/29 20:52:45;;;;;;;8.00;5.53;;;14.40;99.90;;;;;;20982612;28;20474;-78
2021/08/29 21:02:46;;;;;;;13.17;8.57;;;14.30;99.90;;;;;;20999838;28;20098;-77
2021/08/29 21:12:48;;;;;;;13.90;8.43;;;14.30;99.90;;;;;;20998747;28;20507;-79
2021/08/29 21:22:49;;;;;;;10.90;5.77;;;14.30;99.90;;;;;;20998705;28;20025;-78
2021/08/29 21:32:50;;;;;;;13.23;6.03;;;14.20;99.90;;;;;;20979192;28;20024;-78
2021/08/29 21:42:51;;;;;;;9.90;5.63;;;14.20;99.90;;;;;;20936090;28;20031;-78
2021/08/29 21:52:52;;;;;;;9.27;6.00;;;14.20;99.90;;;;;;20995273;28;20028;-76
2021/08/29 22:02:53;;;;;;;7.80;5.13;;;14.20;99.90;;;;;;20972272;28;20033;-77
2021/08/29 22:12:54;;;;;;;8.33;4.93;;;14.20;99.90;;;;;;20983831;28;20032;-78
2021/08/29 22:22:54;;;;;;;13.60;5.10;;;14.20;99.90;;;;;;20978153;28;20036;-78
2021/08/29 22:32:56;;;;;;;9.70;5.03;;;14.20;99.90;;;;;;20978265;28;20043;-78
2021/08/29 22:42:57;;;;;;;46.97;9.40;;;14.20;99.90;;;;;;20992804;28;20463;-77
2021/08/29 22:52:57;;;;;;;8.73;5.23;;;14.30;99.90;;;;;;20995625;28;20123;-77
2021/08/29 23:02:58;;;;;;;8.73;5.10;;;14.30;99.90;;;;;;20992782;28;20104;-78
2021/08/29 23:12:59;;;;;;;7.93;4.93;;;14.20;99.90;;;;;;20973649;28;20506;-78
2021/08/29 23:23:00;;;;;;;8.70;5.80;;;14.20;99.90;;;;;;20973251;28;20063;-77
2021/08/29 23:33:01;;;;;;;10.17;5.93;;;14.10;99.90;;;;;;20973438;28;20111;-78
2021/08/29 23:43:02;;;;;;;8.90;5.57;;;14.10;99.90;;;;;;20990050;28;20106;-78
2021/08/29 23:53:03;;;;;;;10.00;5.63;;;14.00;99.90;;;;;;20988390;28;20109;-77
